HKNW/WIL METAR and TAF weather

Enter ICAO airport designator
Station Type Date Time Source
HKNW METAR 2019/12/12 23:00 UTC NOAA

HKNW 122300Z 00000KT 9999 BKN020 17/17 Q1020


Station Type Date Time Source
HKNW Decoded METAR 2019/12/12 23:00 UTC NOAA

Nairobi / Wilson, Kenya (HKNW) 01-19S 036-49E 1679M
Dec 12, 2019 - 06:00 PM EST / 2019.12.12 2300 UTC
Wind: Calm:0
Visibility: greater than 7 mile(s):0
Sky conditions: mostly cloudy
Temperature: 62 F (17 C)
Dew Point: 62 F (17 C)
Relative Humidity: 100%
Pressure (altimeter): 30.12 in. Hg (1020 hPa)
ob: HKNW 122300Z 00000KT 9999 BKN020 17/17 Q1020
cycle: 23

Station Type Date Time Source
HKNW TAF 2019/12/12 18:12 UTC NOAA

TAF TAF HKNW 121700Z 1218/1318 03005KT 9999 BKN018
BECMG 1308/1311 07010KT FEW023CB BKN024
TEMPO 1312/1318 -SHRA FEW020CB BKN021 BKN080

Example: see airport list